• Join FlightAware (Why Join?)
  • Login
  • US Flag 
09:11AM EDT


 

Airport Tracker/Info


-or-


 

Live Flight TrackerFlight Track Log ✈ RPA3156 ✈ 27-May-2013 ✈ KIND - KPHL

Flight Track Log - Related Links

Times and Time Zones

All times are in EDT time to prevent confusion due to time zone crossing. See the RPA3156 flight status page for this flight to view local times or setup timezone preferences in your user account.

Time Position Orientation Groundspeed Altitude Reporting Facility
EDT Latitude Longitude Course Direction KTS MPH feet Rate Location/Type
07:06AM 39.7000 -86.3000 74° East 149 171 1,400  Level Indianapolis TRACON
07:09AM 39.7727 -85.8897 83° East  Level FlightAware Approximate
07:09AM 39.6119 -86.2853 173° South 253 291 6,100  Level Indianapolis Center
07:10AM 39.7875 -85.7563 79° East  Level FlightAware Approximate
07:10AM 39.6456 -86.1869 66° East 301 346 9,000  Level Indianapolis Center
07:11AM 39.8079 -85.6241 79° East  Level FlightAware Approximate
07:11AM 39.6617 -86.0483 81° East 327 376 11,700  Level Indianapolis Center
07:12AM 39.8330 -85.4933 74° East  Level FlightAware Approximate
07:12AM 39.6769 -85.9236 81° East 348 400 14,100  Level Indianapolis Center
07:13AM 39.6928 -85.7928 81° East 367 422 16,200 2,040 Climbing Indianapolis Center
07:14AM 39.7089 -85.6578 81° East 378 435 18,300 1,980 Climbing Indianapolis Center
07:15AM 39.7258 -85.5200 81° East 387 445 20,300 1,920 Climbing Indianapolis Center
07:16AM 39.7414 -85.3792 82° East 394 453 22,200 1,740 Climbing Indianapolis Center
07:17AM 39.7581 -85.2358 81° East 403 464 23,900 1,560 Climbing Indianapolis Center
07:18AM 39.7750 -85.0883 81° East 411 473 25,400 1,380 Climbing Indianapolis Center
07:19AM 39.8061 -84.9408 75° East 425 489 26,700 1,200 Climbing Indianapolis Center
07:20AM 39.8444 -84.7844 72° East 430 495 27,900 1,080 Climbing Indianapolis Center
07:21AM 39.8597 -84.6236 83° East 444 511 28,900 960 Climbing Indianapolis Center
07:22AM 39.8756 -84.4622 83° East 448 516 29,900 960 Climbing Indianapolis Center
07:23AM 39.8933 -84.2967 82° East 456 525 30,900 540 Climbing Indianapolis Center
07:24AM 39.9106 -84.1369 82° East 444 511 31,000  Climbing Indianapolis Center
07:25AM 39.9250 -83.9819 83° East 429 494 31,000  Level Indianapolis Center
07:26AM 39.9406 -83.8275 82° East 427 491 31,000  Level Indianapolis Center
07:27AM 39.9556 -83.6697 83° East 430 495 31,000  Level Indianapolis Center
07:28AM 39.9714 -83.5100 83° East 432 497 31,000  Level Indianapolis Center
07:29AM 39.9867 -83.3478 83° East 437 503 31,000  Level Indianapolis Center
07:30AM 40.0006 -83.1886 83° East 436 502 31,000  Level Indianapolis Center
07:31AM 40.0156 -83.0297 83° East 436 502 31,000  Level Indianapolis Center
07:32AM 40.0297 -82.8717 83° East 435 501 31,000  Level Indianapolis Center
07:33AM 40.0436 -82.7125 83° East 437 503 31,000  Level Indianapolis Center
07:34AM 40.0575 -82.5542 83° East 435 501 31,000  Level Indianapolis Center
07:35AM 40.0703 -82.3961 84° East 435 501 31,000  Level Indianapolis Center
07:36AM 40.0839 -82.2369 84° East 436 502 31,000  Level Indianapolis Center
07:37AM 40.0969 -82.0778 84° East 437 503 31,000  Level Indianapolis Center
07:38AM 40.1106 -81.9194 84° East 437 503 31,000  Level Indianapolis Center
07:39AM 40.1236 -81.7503 84° East 438 504 31,000  Level Indianapolis Center
07:40AM 40.1358 -81.5903 84° East 440 506 31,000  Level Indianapolis Center
07:41AM 40.1475 -81.4306 84° East 438 504 31,000  Level Indianapolis Center
07:42AM 40.1603 -81.2711 84° East 438 504 31,000  Level Indianapolis Center
07:43AM 40.1722 -81.1111 84° East 438 504 31,000  Level Indianapolis Center
07:44AM 40.1853 -80.9717 83° East 438 504 31,000  Level Cleveland Center
07:45AM 40.1961 -80.8114 85° East 443 510 31,000  Level Cleveland Center
07:46AM 40.2067 -80.6564 85° East 443 510 31,000  Level Cleveland Center
07:47AM 40.2172 -80.4961 85° East 443 510 31,000  Level Cleveland Center
07:48AM 40.2275 -80.3411 85° East 443 510 31,000  Level Cleveland Center
07:49AM 40.2375 -80.1833 85° East 433 498 31,000  Level Cleveland Center
07:50AM 40.2472 -80.0228 85° East 442 509 31,000  Level Cleveland Center
07:51AM 40.2589 -79.8675 84° East 442 509 31,000  Level Cleveland Center
07:52AM 40.2683 -79.7206 85° East 442 509 31,000  Level Cleveland Center
07:53AM 40.2772 -79.5625 86° East 442 509 31,000  Level Cleveland Center
07:54AM 40.2861 -79.4019 86° East 442 509 31,000  Level Cleveland Center
07:55AM 40.2928 -79.2439 87° East 442 509 31,000  Level Cleveland Center
07:56AM 40.3011 -79.0831 86° East 442 509 31,000  Level Cleveland Center
07:57AM 40.3094 -78.9222 86° East 442 509 31,000  Level Cleveland Center
07:58AM 40.3153 -78.7642 87° East 442 509 31,000  Level Cleveland Center
07:59AM 40.3144 -78.5872 90° East 442 509 31,000  Level Cleveland Center
08:00AM 40.3136 -78.4267 90° East 442 509 31,000 -1,440 Level Cleveland Center
08:02AM 40.3122 -78.1508 90° East 471 542 27,300 -2,220 Descending New York Center
08:03AM 40.3142 -77.9850 89° East 466 536 25,100 -1,200 Descending New York Center
08:04AM 40.3108 -77.8322 92° East 446 513 25,000 -660 Descending New York Center
08:05AM 40.3097 -77.6769 90° East 432 497 23,900 -1,260 Descending New York Center
08:06AM 40.3081 -77.5242 91° East 426 490 22,500 -1,500 Descending New York Center
08:07AM 40.3058 -77.3769 91° East 416 479 21,000 -1,500 Descending New York Center
08:08AM 40.3017 -77.2294 92° East 410 472 19,600 -1,440 Descending New York Center
08:09AM 40.3008 -77.0906 90° East 392 451 18,200 -1,260 Descending New York Center
08:10AM 40.2800 -76.9717 103° East 373 429 17,200 -600 Descending New York Center
08:11AM 40.2456 -76.8300 108° East 373 429 17,000 -120 Descending New York Center
08:12AM 40.2208 -76.7028 104° East 373 429 17,000  Level New York Center
08:13AM 40.2078 -76.5872 98° East 360 414 17,000  Level New York Center
08:14AM 40.1856 -76.4442 101° East 360 414 17,000 -360 Level New York Center
08:15AM 40.1683 -76.3258 101° East 360 414 16,300 -1,260 Descending New York Center
08:16AM 40.1469 -76.1992 102° East 359 413 14,500 -1,920 Descending New York Center
08:17AM 40.1283 -76.0594 100° East 353 406 12,500 -1,860 Descending New York Center
08:18AM 40.1125 -75.9494 101° East 353 406 10,800 -1,500 Descending New York Center
08:19AM 40.0925 -75.8286 102° East 327 376 9,500 -1,440 Descending New York Center
08:20AM 40.0800 -75.7328 100° East 303 349 8,000 -1,320 Descending New York Center
08:21AM 40.0808 -75.6133 89° East 291 335 7,000 -1,020 Descending New York Center
08:22AM 40.0806 -75.5183 90° East 291 335 6,000 -540 Descending New York Center
08:23AM 40.0722 -75.4094 96° East 280 322 6,000  Level New York Center
08:24AM 40.0647 -75.3383 98° East 244 281 6,000  Level New York Center
08:25AM 40.0553 -75.2564 99° East 220 253 6,000  Level New York Center
08:25AM 40.0500 -75.2167 100° East 229 264 6,000  Level Philadelphia TRACON
08:26AM 40.0500 -75.1333 90° East 226 260 6,000  Level Philadelphia TRACON
08:27AM 40.0333 -75.0667 108° East 226 260 6,000 -300 Level Philadelphia TRACON
08:28AM 40.0167 -74.9833 105° East 225 259 5,500 -1,020 Descending Philadelphia TRACON
08:29AM 39.9500 -74.9667 169° South 211 243 4,000 -1,260 Descending Philadelphia TRACON
08:30AM 39.9167 -75.0167 229° Southwest 193 222 3,000 -1,020 Descending Philadelphia TRACON